createdAt,value
2023-01-22T00:00:15.730Z,1.50
2023-01-22T00:05:16.191Z,1.67
2023-01-22T00:10:15.320Z,2.05
2023-01-22T00:15:14.408Z,2.72
2023-01-22T00:20:14.581Z,1.52
2023-01-22T00:25:14.981Z,1.95
2023-01-22T00:30:14.149Z,2.60
2023-01-22T00:35:12.901Z,1.58
2023-01-22T00:40:13.099Z,1.65
2023-01-22T00:45:15.289Z,1.42
2023-01-22T00:50:14.142Z,1.37
2023-01-22T00:55:13.128Z,1.60
2023-01-22T01:00:16.176Z,1.88
2023-01-22T01:05:16.200Z,2.00
2023-01-22T01:10:16.803Z,1.45
2023-01-22T01:15:17.272Z,1.67
2023-01-22T01:20:16.997Z,2.25
2023-01-22T01:25:15.944Z,2.38
2023-01-22T01:30:16.864Z,1.98
2023-01-22T01:35:16.061Z,2.60
2023-01-22T01:40:15.052Z,2.28
2023-01-22T01:45:24.278Z,1.73
2023-01-22T01:50:26.671Z,2.30
2023-01-22T01:55:28.891Z,1.73
2023-01-22T02:00:32.618Z,1.90
2023-01-22T02:05:39.617Z,1.70
2023-01-22T02:10:39.422Z,1.85
2023-01-22T02:15:40.615Z,1.58
2023-01-22T02:20:41.467Z,2.15
2023-01-22T02:25:40.326Z,2.00
2023-01-22T02:30:39.174Z,2.33
2023-01-22T02:35:37.907Z,2.35
2023-01-22T02:40:49.221Z,1.75
2023-01-22T02:45:50.990Z,2.65
2023-01-22T02:50:50.261Z,2.00
2023-01-22T02:55:50.497Z,2.53
2023-01-22T03:00:49.310Z,2.03
2023-01-22T03:05:52.003Z,2.22
2023-01-22T03:10:52.238Z,2.30
2023-01-22T03:16:08.742Z,2.20
2023-01-22T03:21:20.402Z,2.42
2023-01-22T03:26:22.152Z,2.45
2023-01-22T03:31:21.287Z,2.10
2023-01-22T03:36:20.505Z,2.33
2023-01-22T03:41:24.795Z,2.50
2023-01-22T03:46:23.750Z,3.90
2023-01-22T03:51:26.399Z,2.67
2023-01-22T03:56:27.487Z,2.55
2023-01-22T04:01:31.466Z,2.75
2023-01-22T04:06:31.484Z,2.25
2023-01-22T04:11:31.990Z,2.42
2023-01-22T04:16:31.031Z,3.22
2023-01-22T04:21:32.532Z,3.40
2023-01-22T04:26:34.655Z,2.53
2023-01-22T04:31:35.374Z,2.65
2023-01-22T04:36:52.555Z,2.90
2023-01-22T04:41:54.057Z,3.38
2023-01-22T04:46:52.959Z,2.30
2023-01-22T04:51:54.224Z,2.08
2023-01-22T04:56:54.749Z,2.90
2023-01-22T05:01:53.534Z,2.40
2023-01-22T05:06:56.687Z,2.38
2023-01-22T05:11:57.053Z,2.45
2023-01-22T05:16:56.727Z,2.30
2023-01-22T05:21:55.619Z,2.10
2023-01-22T05:26:56.207Z,2.75
2023-01-22T05:32:00.176Z,1.90
2023-01-22T05:37:03.334Z,2.03
2023-01-22T05:42:05.983Z,3.10
2023-01-22T05:47:05.767Z,2.03
2023-01-22T05:52:15.808Z,2.03
2023-01-22T05:57:17.388Z,2.30
2023-01-22T06:02:34.254Z,2.40
2023-01-22T06:07:33.426Z,3.58
2023-01-22T06:12:34.697Z,2.63
2023-01-22T06:17:33.665Z,3.38
2023-01-22T06:22:33.748Z,3.33
2023-01-22T06:27:35.785Z,2.55
2023-01-22T06:32:34.631Z,3.28
2023-01-22T06:37:34.099Z,2.40
2023-01-22T06:42:33.507Z,3.28
2023-01-22T06:47:33.946Z,3.53
2023-01-22T06:52:34.336Z,2.55
2023-01-22T06:57:33.172Z,3.33
2023-01-22T07:02:33.379Z,4.75
2023-01-22T07:07:32.172Z,2.90
2023-01-22T07:12:30.950Z,3.00
2023-01-22T07:17:29.796Z,2.97
2023-01-22T07:22:31.274Z,2.92
2023-01-22T07:27:30.491Z,2.83
2023-01-22T07:32:29.342Z,3.40
2023-01-22T07:37:29.583Z,4.20
2023-01-22T07:42:28.317Z,3.63
2023-01-22T07:47:27.235Z,4.72
2023-01-22T07:52:26.112Z,5.57
2023-01-22T07:57:26.270Z,4.03
2023-01-22T08:02:25.197Z,3.63
2023-01-22T08:07:27.780Z,2.50
2023-01-22T08:12:28.292Z,3.22
2023-01-22T08:17:27.061Z,4.22
2023-01-22T08:22:25.894Z,3.30
2023-01-22T08:27:24.840Z,3.47
2023-01-22T08:32:25.103Z,3.80
2023-01-22T08:37:24.633Z,4.90
2023-01-22T08:42:23.469Z,5.50
2023-01-22T08:47:22.518Z,7.63
2023-01-22T08:52:22.688Z,7.35
2023-01-22T08:57:21.511Z,7.60
2023-01-22T09:02:20.500Z,8.48
2023-01-22T09:07:19.273Z,9.52
2023-01-22T09:12:19.520Z,13.40
2023-01-22T09:17:18.561Z,12.20
2023-01-22T09:22:17.538Z,14.02
2023-01-22T09:27:16.244Z,12.30
2023-01-22T09:32:16.512Z,10.43
2023-01-22T09:37:15.475Z,6.72
2023-01-22T09:42:20.554Z,7.97
2023-01-22T09:47:26.668Z,7.15
2023-01-22T09:52:29.737Z,7.75
2023-01-22T09:57:32.516Z,7.28
2023-01-22T10:02:38.809Z,7.65
2023-01-22T10:07:42.627Z,10.02
2023-01-22T10:12:41.504Z,9.57
2023-01-22T10:17:42.934Z,10.35
2023-01-22T10:22:41.876Z,10.52
2023-01-22T10:27:41.246Z,9.15
2023-01-22T10:32:41.927Z,9.68
2023-01-22T10:37:45.304Z,11.38
2023-01-22T10:42:44.123Z,9.75
2023-01-22T10:47:44.257Z,13.10
2023-01-22T10:52:45.768Z,13.23
2023-01-22T10:57:53.741Z,14.57
2023-01-22T11:02:54.149Z,14.25
2023-01-22T11:07:55.704Z,12.43
2023-01-22T11:12:59.585Z,13.88
2023-01-22T11:18:02.741Z,15.25
2023-01-22T11:28:17.880Z,11.57
2023-01-22T11:33:32.263Z,10.32
2023-01-22T11:38:39.571Z,9.05
2023-01-22T11:43:56.818Z,10.77
2023-01-22T11:49:07.322Z,11.00
2023-01-22T11:54:27.565Z,10.20
2023-01-22T11:59:46.096Z,11.50
2023-01-22T12:05:18.697Z,12.75
2023-01-22T12:10:42.766Z,11.23
2023-01-22T12:15:48.792Z,13.07
2023-01-22T12:21:10.446Z,14.43
2023-01-22T12:26:14.793Z,13.60
2023-01-22T12:31:19.519Z,14.60
2023-01-22T12:36:23.068Z,17.95
2023-01-22T12:41:42.869Z,17.48
2023-01-22T12:46:51.871Z,13.73
2023-01-22T12:51:54.183Z,15.85
2023-01-22T12:56:56.634Z,14.73
2023-01-22T13:02:00.518Z,13.82
2023-01-22T13:07:21.342Z,15.23
2023-01-22T13:12:28.507Z,14.82
2023-01-22T13:17:31.020Z,14.05
2023-01-22T13:22:32.509Z,12.57
2023-01-22T13:27:34.653Z,11.65
2023-01-22T13:32:33.403Z,12.33
2023-01-22T13:37:38.324Z,12.38
2023-01-22T13:42:37.123Z,8.15
2023-01-22T13:47:37.103Z,8.57
2023-01-22T13:52:37.418Z,11.43
2023-01-22T13:57:36.326Z,7.72
2023-01-22T14:02:36.434Z,9.77
2023-01-22T14:07:38.117Z,8.13
2023-01-22T14:12:36.873Z,9.23
2023-01-22T14:17:35.644Z,8.20
2023-01-22T14:22:34.429Z,13.73
2023-01-22T14:27:43.545Z,10.43
2023-01-22T14:32:42.766Z,11.27
2023-01-22T14:37:41.766Z,12.20
2023-01-22T14:42:42.500Z,13.35
2023-01-22T14:47:41.268Z,12.98
2023-01-22T14:52:40.279Z,13.18
2023-01-22T14:57:39.414Z,16.92
2023-01-22T15:02:40.142Z,13.80
2023-01-22T15:07:39.881Z,17.60
2023-01-22T15:12:38.913Z,18.35
2023-01-22T15:17:39.223Z,18.67
2023-01-22T15:22:37.966Z,18.42
2023-01-22T15:27:36.761Z,17.70
2023-01-22T15:32:35.543Z,17.38
2023-01-22T15:37:35.909Z,18.05
2023-01-22T15:42:35.778Z,18.88
2023-01-22T15:47:34.768Z,23.45
2023-01-22T15:52:33.576Z,26.38
2023-01-22T15:57:33.871Z,38.45
2023-01-22T16:02:32.809Z,40.00
2023-01-22T16:07:31.702Z,27.02
2023-01-22T16:12:31.286Z,23.10
2023-01-22T16:17:31.558Z,20.75
2023-01-22T16:22:30.285Z,20.08
2023-01-22T16:27:30.390Z,19.63
2023-01-22T16:32:29.102Z,18.42
2023-01-22T16:37:29.318Z,16.92
2023-01-22T16:42:28.230Z,20.08
2023-01-22T16:47:27.152Z,26.75
2023-01-22T16:52:25.952Z,25.58
2023-01-22T16:57:26.233Z,20.80
2023-01-22T17:02:25.133Z,24.40
2023-01-22T17:07:33.218Z,23.83
2023-01-22T17:12:34.159Z,29.50
2023-01-22T17:17:33.195Z,23.73
2023-01-22T17:22:33.258Z,20.77
2023-01-22T17:27:33.762Z,16.27
2023-01-22T17:32:34.118Z,12.90
2023-01-22T17:37:33.095Z,13.85
2023-01-22T17:42:33.570Z,13.32
2023-01-22T17:47:39.744Z,15.70
2023-01-22T17:52:38.648Z,11.35
2023-01-22T17:57:41.422Z,10.73
2023-01-22T18:02:41.913Z,8.45
2023-01-22T18:07:41.452Z,9.13
2023-01-22T18:12:42.372Z,10.02
2023-01-22T18:17:41.272Z,9.45
2023-01-22T18:22:40.188Z,8.55
2023-01-22T18:27:39.255Z,6.82
2023-01-22T18:32:39.554Z,8.80
2023-01-22T18:37:38.491Z,8.65
2023-01-22T18:42:40.179Z,7.53
2023-01-22T18:47:40.547Z,7.53
2023-01-22T18:52:39.518Z,8.75
2023-01-22T18:57:57.044Z,11.20
2023-01-22T19:03:00.614Z,7.18
2023-01-22T19:07:59.586Z,7.15
2023-01-22T19:12:58.561Z,6.50
2023-01-22T19:17:57.387Z,6.65
2023-01-22T19:23:00.195Z,6.80
2023-01-22T19:27:59.051Z,7.18
2023-01-22T19:32:57.794Z,7.75
2023-01-22T19:37:58.101Z,9.40
2023-01-22T19:42:57.341Z,7.55
2023-01-22T19:47:59.389Z,6.10
2023-01-22T19:52:59.719Z,6.57
2023-01-22T19:57:58.549Z,11.70
2023-01-22T20:02:57.486Z,5.88
2023-01-22T20:07:59.463Z,6.82
2023-01-22T20:12:58.410Z,6.32
2023-01-22T20:17:57.787Z,6.45
2023-01-22T20:22:56.706Z,6.82
2023-01-22T20:27:56.896Z,6.18
2023-01-22T20:32:56.702Z,6.90
2023-01-22T20:37:55.474Z,7.28
2023-01-22T20:42:54.137Z,7.15
2023-01-22T20:47:54.389Z,6.95
2023-01-22T20:52:54.913Z,5.22
2023-01-22T20:57:53.667Z,6.50
2023-01-22T21:02:53.866Z,5.75
2023-01-22T21:07:52.673Z,6.25
2023-01-22T21:12:51.627Z,5.90
2023-01-22T21:17:50.523Z,5.80
2023-01-22T21:22:51.242Z,5.85
2023-01-22T21:27:51.227Z,5.25
2023-01-22T21:32:52.433Z,5.38
2023-01-22T21:37:52.579Z,5.45
2023-01-22T21:43:09.030Z,4.57
2023-01-22T21:48:08.244Z,6.40
2023-01-22T21:53:08.866Z,5.63
2023-01-22T21:58:08.925Z,5.05
2023-01-22T22:03:07.774Z,6.05
2023-01-22T22:08:08.185Z,6.05
2023-01-22T22:13:06.976Z,5.32
2023-01-22T22:18:05.961Z,4.90
2023-01-22T22:23:05.079Z,5.85
2023-01-22T22:28:05.652Z,4.82
2023-01-22T22:33:04.457Z,6.10
2023-01-22T22:38:03.292Z,6.40
2023-01-22T22:43:02.032Z,5.93
2023-01-22T22:48:02.218Z,6.20
2023-01-22T22:53:02.316Z,6.22
2023-01-22T22:58:01.091Z,5.18
2023-01-22T23:03:01.181Z,6.28
2023-01-22T23:08:00.038Z,6.07
2023-01-22T23:13:00.868Z,6.85
2023-01-22T23:18:01.937Z,7.93
2023-01-22T23:23:00.823Z,9.82
2023-01-22T23:27:59.633Z,8.43
2023-01-22T23:32:58.484Z,9.70
2023-01-22T23:37:58.677Z,10.10
2023-01-22T23:42:57.509Z,9.68
2023-01-22T23:47:56.645Z,10.77
2023-01-22T23:52:55.327Z,10.27
2023-01-22T23:57:56.215Z,11.30
